FIN440 EFOU-EFHK
Flight info
| Callsign | FIN440 |
|---|---|
| Flight time | N/A |
| Altitude | 37000 |
| Route | MIKNU Y86 LUSEP |
| Aircraft | E190/M-SDE3GILORVW/S |
Departure
| Time | 2026-05-09 13:22 |
|---|---|
| Airport | Oulu Airport (EFOU) |
Arrival
| Time | N/A |
|---|---|
| Airport | Helsinki Vantaa Airport (EFHK) |
| Time | Latitude | Longitude | Altitude | Speed | Heading |
|---|---|---|---|---|---|
| 2026-05-09 13:02 | 64.92874 | 25.37027 | 49 ft | 0 kts | 60° |
| 2026-05-09 13:12 | 64.92871 | 25.37013 | 49 ft | 4 kts | 60° |
| 2026-05-09 13:12 | 64.92859 | 25.36961 | 48 ft | 3 kts | 60° |
| 2026-05-09 13:12 | 64.92846 | 25.36916 | 47 ft | 4 kts | 28° |
| 2026-05-09 13:12 | 64.92829 | 25.36911 | 48 ft | 4 kts | 309° |
| 2026-05-09 13:13 | 64.92815 | 25.36963 | 45 ft | 4 kts | 295° |
| 2026-05-09 13:13 | 64.92808 | 25.36999 | 49 ft | 0 kts | 301° |
| 2026-05-09 13:16 | 64.92833 | 25.36899 | 47 ft | 12 kts | 301° |
| 2026-05-09 13:16 | 64.92893 | 25.36663 | 49 ft | 21 kts | 300° |
| 2026-05-09 13:16 | 64.92977 | 25.36336 | 49 ft | 25 kts | 301° |
| 2026-05-09 13:16 | 64.93074 | 25.35956 | 47 ft | 29 kts | 301° |
| 2026-05-09 13:17 | 64.93182 | 25.35529 | 49 ft | 32 kts | 302° |
| 2026-05-09 13:17 | 64.93284 | 25.35132 | 49 ft | 24 kts | 301° |
| 2026-05-09 13:17 | 64.93361 | 25.34831 | 47 ft | 16 kts | 301° |
| 2026-05-09 13:17 | 64.93425 | 25.34580 | 48 ft | 20 kts | 302° |
| 2026-05-09 13:18 | 64.93503 | 25.34272 | 49 ft | 24 kts | 301° |
| 2026-05-09 13:18 | 64.93581 | 25.33967 | 48 ft | 15 kts | 300° |
| 2026-05-09 13:18 | 64.93637 | 25.33747 | 47 ft | 16 kts | 301° |
| 2026-05-09 13:18 | 64.93701 | 25.33494 | 49 ft | 19 kts | 300° |
| 2026-05-09 13:19 | 64.93664 | 25.33258 | 49 ft | 12 kts | 191° |
| 2026-05-09 13:19 | 64.93654 | 25.33256 | 47 ft | 0 kts | 182° |
| 2026-05-09 13:20 | 64.93641 | 25.33256 | 50 ft | 5 kts | 180° |
| 2026-05-09 13:20 | 64.93586 | 25.33277 | 49 ft | 12 kts | 163° |
| 2026-05-09 13:21 | 64.93530 | 25.33409 | 45 ft | 11 kts | 120° |
| 2026-05-09 13:21 | 64.93497 | 25.33540 | 50 ft | 9 kts | 121° |
| 2026-05-09 13:21 | 64.93465 | 25.33663 | 49 ft | 9 kts | 121° |
| 2026-05-09 13:21 | 64.93278 | 25.34394 | 47 ft | 110 kts | 121° |
| 2026-05-09 13:22 | 64.92711 | 25.36616 | 389 ft | 191 kts | 123° |
| 2026-05-09 13:22 | 64.91972 | 25.39582 | 1661 ft | 216 kts | 124° |
| 2026-05-09 13:22 | 64.91209 | 25.42661 | 2918 ft | 214 kts | 125° |
| 2026-05-09 13:23 | 64.87019 | 25.50859 | 6682 ft | 206 kts | 181° |
| 2026-05-09 13:23 | 64.85584 | 25.50796 | 7404 ft | 208 kts | 184° |
| 2026-05-09 13:24 | 64.84124 | 25.50700 | 8085 ft | 211 kts | 185° |
| 2026-05-09 13:24 | 64.82642 | 25.50567 | 8762 ft | 215 kts | 185° |
| 2026-05-09 13:24 | 64.81136 | 25.50402 | 9432 ft | 219 kts | 186° |
| 2026-05-09 13:24 | 64.79601 | 25.50214 | 10130 ft | 223 kts | 186° |
| 2026-05-09 13:25 | 64.78039 | 25.50016 | 10792 ft | 226 kts | 186° |
| 2026-05-09 13:25 | 64.76458 | 25.49810 | 11466 ft | 229 kts | 186° |
| 2026-05-09 13:25 | 64.73242 | 25.49374 | 12910 ft | 234 kts | 186° |
| 2026-05-09 13:26 | 64.71607 | 25.49139 | 13646 ft | 237 kts | 187° |
| 2026-05-09 13:26 | 64.69948 | 25.48886 | 14350 ft | 240 kts | 187° |
| 2026-05-09 13:26 | 64.68272 | 25.48624 | 15061 ft | 243 kts | 187° |
| 2026-05-09 13:26 | 64.66576 | 25.48346 | 15752 ft | 246 kts | 187° |
| 2026-05-09 13:27 | 64.64857 | 25.48053 | 16440 ft | 249 kts | 188° |
| 2026-05-09 13:27 | 64.63119 | 25.47744 | 17138 ft | 252 kts | 188° |
| 2026-05-09 13:27 | 64.61364 | 25.47419 | 17821 ft | 255 kts | 189° |
| 2026-05-09 13:27 | 64.59583 | 25.47075 | 18486 ft | 258 kts | 189° |
| 2026-05-09 13:28 | 64.57776 | 25.46710 | 18887 ft | 262 kts | 190° |
| 2026-05-09 13:28 | 64.55961 | 25.46318 | 19288 ft | 262 kts | 190° |
| 2026-05-09 13:28 | 64.54139 | 25.45922 | 19643 ft | 264 kts | 190° |
| 2026-05-09 13:28 | 64.52306 | 25.45518 | 19996 ft | 266 kts | 190° |
| 2026-05-09 13:29 | 64.50458 | 25.45106 | 20334 ft | 268 kts | 190° |
| 2026-05-09 13:29 | 64.48599 | 25.44685 | 20681 ft | 269 kts | 190° |
| 2026-05-09 13:29 | 64.46729 | 25.44256 | 21022 ft | 271 kts | 190° |
| 2026-05-09 13:29 | 64.44846 | 25.43818 | 21371 ft | 273 kts | 190° |
| 2026-05-09 13:30 | 64.42975 | 25.43432 | 21716 ft | 275 kts | 187° |
| 2026-05-09 13:30 | 64.41052 | 25.43332 | 22050 ft | 278 kts | 185° |
| 2026-05-09 13:30 | 64.39111 | 25.43285 | 22393 ft | 280 kts | 185° |
| 2026-05-09 13:30 | 64.37160 | 25.43211 | 22738 ft | 281 kts | 186° |
| 2026-05-09 13:31 | 64.35199 | 25.43110 | 23086 ft | 282 kts | 186° |
| 2026-05-09 13:31 | 64.33232 | 25.43002 | 23450 ft | 284 kts | 186° |
| 2026-05-09 13:31 | 64.31255 | 25.42887 | 23805 ft | 285 kts | 186° |
| 2026-05-09 13:31 | 64.29262 | 25.42766 | 24094 ft | 288 kts | 186° |
| 2026-05-09 13:32 | 64.27253 | 25.42644 | 24375 ft | 290 kts | 187° |
| 2026-05-09 13:32 | 64.23199 | 25.42404 | 24988 ft | 292 kts | 187° |
| 2026-05-09 13:32 | 64.21160 | 25.42281 | 25289 ft | 294 kts | 187° |
| 2026-05-09 13:33 | 64.19112 | 25.42159 | 25572 ft | 295 kts | 187° |
| 2026-05-09 13:33 | 64.17054 | 25.42033 | 25854 ft | 296 kts | 187° |
| 2026-05-09 13:33 | 64.14989 | 25.41910 | 26110 ft | 298 kts | 187° |
| 2026-05-09 13:33 | 64.12912 | 25.41785 | 26381 ft | 299 kts | 187° |
| 2026-05-09 13:34 | 64.10829 | 25.41660 | 26629 ft | 300 kts | 187° |
| 2026-05-09 13:34 | 64.08733 | 25.41535 | 26876 ft | 301 kts | 187° |
| 2026-05-09 13:34 | 64.06634 | 25.41410 | 27121 ft | 303 kts | 187° |
| 2026-05-09 13:34 | 64.04527 | 25.41285 | 27343 ft | 304 kts | 187° |
| 2026-05-09 13:35 | 64.02409 | 25.41158 | 27546 ft | 304 kts | 187° |
| 2026-05-09 13:35 | 64.00298 | 25.41032 | 27795 ft | 304 kts | 187° |
| 2026-05-09 13:35 | 63.98177 | 25.40906 | 28007 ft | 305 kts | 187° |
| 2026-05-09 13:35 | 63.96050 | 25.40781 | 28226 ft | 306 kts | 187° |
| 2026-05-09 13:36 | 63.94637 | 25.40695 | 28359 ft | 307 kts | 187° |
| 2026-05-09 13:36 | 63.92497 | 25.40566 | 28572 ft | 308 kts | 187° |
| 2026-05-09 13:36 | 63.90352 | 25.40439 | 28761 ft | 309 kts | 187° |
| 2026-05-09 13:36 | 63.87495 | 25.40270 | 29029 ft | 311 kts | 187° |
| 2026-05-09 13:37 | 63.85329 | 25.40142 | 29206 ft | 312 kts | 187° |
| 2026-05-09 13:37 | 63.83854 | 25.40052 | 29227 ft | 316 kts | 187° |
| 2026-05-09 13:37 | 63.79375 | 25.39903 | 29281 ft | 327 kts | 186° |
| 2026-05-09 13:38 | 63.74781 | 25.39849 | 29550 ft | 330 kts | 186° |
| 2026-05-09 13:38 | 63.72499 | 25.39814 | 29805 ft | 327 kts | 186° |
| 2026-05-09 13:38 | 63.70223 | 25.39747 | 29936 ft | 328 kts | 187° |
| 2026-05-09 13:39 | 63.65642 | 25.39500 | 30212 ft | 329 kts | 186° |
| 2026-05-09 13:39 | 63.63358 | 25.39384 | 30378 ft | 328 kts | 186° |
| 2026-05-09 13:39 | 63.61076 | 25.39273 | 30514 ft | 328 kts | 186° |
| 2026-05-09 13:40 | 63.58795 | 25.39165 | 30643 ft | 328 kts | 186° |
| 2026-05-09 13:40 | 63.56515 | 25.39054 | 30735 ft | 328 kts | 186° |
| 2026-05-09 13:40 | 63.51900 | 25.38807 | 30738 ft | 335 kts | 186° |
| 2026-05-09 13:41 | 63.47251 | 25.38568 | 30863 ft | 336 kts | 186° |
| 2026-05-09 13:41 | 63.44918 | 25.38451 | 31011 ft | 335 kts | 186° |
| 2026-05-09 13:41 | 63.42594 | 25.38333 | 31129 ft | 334 kts | 186° |
| 2026-05-09 13:42 | 63.40275 | 25.38215 | 31235 ft | 333 kts | 186° |
| 2026-05-09 13:42 | 63.37959 | 25.38095 | 31330 ft | 333 kts | 186° |
| 2026-05-09 13:42 | 63.33327 | 25.37861 | 31472 ft | 333 kts | 186° |
| 2026-05-09 13:43 | 63.31021 | 25.37742 | 31627 ft | 329 kts | 186° |
| 2026-05-09 13:43 | 63.28769 | 25.37632 | 31959 ft | 320 kts | 186° |
| 2026-05-09 13:43 | 63.26570 | 25.37523 | 32266 ft | 313 kts | 186° |
| 2026-05-09 13:43 | 63.24421 | 25.37416 | 32594 ft | 305 kts | 186° |
| 2026-05-09 13:44 | 63.22329 | 25.37312 | 32896 ft | 297 kts | 186° |
| 2026-05-09 13:44 | 63.20289 | 25.37209 | 33220 ft | 290 kts | 187° |
| 2026-05-09 13:44 | 63.18305 | 25.37109 | 33545 ft | 281 kts | 187° |
| 2026-05-09 13:44 | 63.16378 | 25.37012 | 33862 ft | 272 kts | 187° |
| 2026-05-09 13:45 | 63.14516 | 25.36920 | 34163 ft | 263 kts | 187° |
| 2026-05-09 13:45 | 63.12718 | 25.36838 | 34422 ft | 253 kts | 187° |
| 2026-05-09 13:45 | 63.10993 | 25.36762 | 34631 ft | 242 kts | 188° |
| 2026-05-09 13:45 | 63.09353 | 25.36692 | 34809 ft | 229 kts | 188° |
| 2026-05-09 13:46 | 63.07800 | 25.36626 | 34851 ft | 219 kts | 188° |
| 2026-05-09 13:46 | 63.06278 | 25.36545 | 34613 ft | 221 kts | 188° |
| 2026-05-09 13:46 | 63.04708 | 25.36446 | 34312 ft | 228 kts | 188° |
| 2026-05-09 13:46 | 63.03128 | 25.36366 | 34171 ft | 226 kts | 188° |
| 2026-05-09 13:47 | 63.01569 | 25.36287 | 34030 ft | 223 kts | 187° |
| 2026-05-09 13:47 | 63.00024 | 25.36229 | 33902 ft | 221 kts | 187° |
| 2026-05-09 13:47 | 62.98516 | 25.36152 | 33756 ft | 218 kts | 188° |
| 2026-05-09 13:47 | 62.96982 | 25.36054 | 33584 ft | 217 kts | 188° |
| 2026-05-09 13:48 | 62.95471 | 25.35965 | 33411 ft | 217 kts | 188° |
| 2026-05-09 13:48 | 62.93984 | 25.35888 | 33234 ft | 216 kts | 188° |
| 2026-05-09 13:48 | 62.92483 | 25.35811 | 33078 ft | 215 kts | 188° |
| 2026-05-09 13:48 | 62.90993 | 25.35734 | 32918 ft | 214 kts | 188° |
| 2026-05-09 13:49 | 62.89505 | 25.35652 | 32763 ft | 213 kts | 188° |
| 2026-05-09 13:49 | 62.88025 | 25.35570 | 32610 ft | 212 kts | 188° |
| 2026-05-09 13:49 | 62.86529 | 25.35491 | 32305 ft | 222 kts | 188° |
| 2026-05-09 13:49 | 62.84869 | 25.35373 | 31503 ft | 258 kts | 188° |
| 2026-05-09 13:50 | 62.82981 | 25.35269 | 31178 ft | 276 kts | 187° |
| 2026-05-09 13:50 | 62.81039 | 25.35190 | 31281 ft | 282 kts | 187° |
| 2026-05-09 13:50 | 62.79053 | 25.35107 | 31372 ft | 289 kts | 188° |
| 2026-05-09 13:50 | 62.77021 | 25.35012 | 31469 ft | 296 kts | 188° |
| 2026-05-09 13:51 | 62.72785 | 25.34792 | 31614 ft | 313 kts | 187° |
| 2026-05-09 13:51 | 62.68303 | 25.34567 | 31735 ft | 332 kts | 187° |
| 2026-05-09 13:52 | 62.63561 | 25.34332 | 31857 ft | 350 kts | 187° |
| 2026-05-09 13:52 | 62.58558 | 25.34082 | 31963 ft | 369 kts | 186° |
| 2026-05-09 13:53 | 62.53298 | 25.33827 | 32067 ft | 387 kts | 186° |
| 2026-05-09 13:53 | 62.47795 | 25.33560 | 32158 ft | 404 kts | 186° |
| 2026-05-09 13:54 | 62.42076 | 25.33286 | 32234 ft | 419 kts | 186° |
| 2026-05-09 13:54 | 62.36156 | 25.33007 | 32321 ft | 431 kts | 186° |
| 2026-05-09 13:55 | 62.33151 | 25.32864 | 32512 ft | 433 kts | 186° |
| 2026-05-09 13:55 | 62.30139 | 25.32724 | 32797 ft | 433 kts | 185° |
| 2026-05-09 13:55 | 62.27133 | 25.32585 | 33187 ft | 430 kts | 185° |
| 2026-05-09 13:55 | 62.24186 | 25.32452 | 33422 ft | 420 kts | 186° |
| 2026-05-09 13:56 | 62.18338 | 25.32168 | 33377 ft | 421 kts | 186° |
| 2026-05-09 13:56 | 62.12520 | 25.31892 | 33352 ft | 422 kts | 185° |
| 2026-05-09 13:57 | 62.06651 | 25.31613 | 33325 ft | 421 kts | 186° |
| 2026-05-09 13:57 | 62.00810 | 25.31330 | 33316 ft | 418 kts | 186° |
| 2026-05-09 13:58 | 61.97904 | 25.31193 | 32920 ft | 415 kts | 186° |
| 2026-05-09 13:58 | 61.95032 | 25.31059 | 32648 ft | 413 kts | 186° |
| 2026-05-09 13:58 | 61.92140 | 25.30920 | 32016 ft | 417 kts | 186° |
| 2026-05-09 13:58 | 61.89237 | 25.30785 | 31439 ft | 417 kts | 186° |
| 2026-05-09 13:59 | 61.86338 | 25.30651 | 30892 ft | 417 kts | 185° |
| 2026-05-09 13:59 | 61.83438 | 25.30514 | 30319 ft | 418 kts | 185° |
| 2026-05-09 13:59 | 61.80532 | 25.30377 | 29783 ft | 418 kts | 185° |
| 2026-05-09 13:59 | 61.77613 | 25.30242 | 29204 ft | 422 kts | 185° |
| 2026-05-09 14:00 | 61.74681 | 25.30105 | 28656 ft | 421 kts | 185° |
| 2026-05-09 14:00 | 61.73692 | 25.30060 | 28458 ft | 420 kts | 185° |
| 2026-05-09 14:00 | 61.68867 | 25.29839 | 27543 ft | 414 kts | 185° |
| 2026-05-09 14:00 | 61.65995 | 25.29707 | 27000 ft | 412 kts | 185° |
| 2026-05-09 14:01 | 61.63142 | 25.29575 | 26458 ft | 409 kts | 184° |
| 2026-05-09 14:01 | 61.60307 | 25.29446 | 25918 ft | 407 kts | 184° |
| 2026-05-09 14:01 | 61.57487 | 25.29315 | 25363 ft | 404 kts | 184° |
| 2026-05-09 14:01 | 61.54681 | 25.29181 | 24836 ft | 401 kts | 184° |
| 2026-05-09 14:02 | 61.51900 | 25.29048 | 24306 ft | 399 kts | 184° |
| 2026-05-09 14:02 | 61.49131 | 25.28917 | 23759 ft | 397 kts | 184° |
| 2026-05-09 14:02 | 61.46386 | 25.28791 | 23252 ft | 392 kts | 183° |
| 2026-05-09 14:02 | 61.43659 | 25.28666 | 22725 ft | 391 kts | 183° |
| 2026-05-09 14:03 | 61.40949 | 25.28539 | 22213 ft | 388 kts | 183° |
| 2026-05-09 14:03 | 61.38256 | 25.28412 | 21692 ft | 386 kts | 183° |
| 2026-05-09 14:03 | 61.35589 | 25.28289 | 21211 ft | 382 kts | 182° |
| 2026-05-09 14:03 | 61.32936 | 25.28167 | 20687 ft | 380 kts | 182° |
| 2026-05-09 14:04 | 61.30304 | 25.28047 | 20167 ft | 378 kts | 182° |
| 2026-05-09 14:04 | 61.27682 | 25.27923 | 19665 ft | 374 kts | 182° |
| 2026-05-09 14:04 | 61.25088 | 25.27803 | 19170 ft | 372 kts | 182° |
| 2026-05-09 14:04 | 61.22512 | 25.27690 | 18689 ft | 369 kts | 182° |
| 2026-05-09 14:05 | 61.19956 | 25.27577 | 18180 ft | 366 kts | 182° |
| 2026-05-09 14:05 | 61.17459 | 25.27459 | 17718 ft | 363 kts | 182° |
| 2026-05-09 14:05 | 61.14945 | 25.27345 | 17244 ft | 360 kts | 182° |
| 2026-05-09 14:05 | 61.12454 | 25.27236 | 16767 ft | 357 kts | 182° |
| 2026-05-09 14:06 | 61.09972 | 25.27127 | 16298 ft | 355 kts | 182° |
| 2026-05-09 14:06 | 61.07513 | 25.27021 | 15825 ft | 352 kts | 182° |
| 2026-05-09 14:06 | 61.05079 | 25.26911 | 15370 ft | 347 kts | 181° |
| 2026-05-09 14:06 | 61.02684 | 25.26802 | 14890 ft | 340 kts | 181° |
| 2026-05-09 14:07 | 61.00353 | 25.26698 | 14453 ft | 330 kts | 181° |
| 2026-05-09 14:07 | 60.98083 | 25.26597 | 14000 ft | 322 kts | 181° |
| 2026-05-09 14:07 | 60.95874 | 25.26404 | 13600 ft | 312 kts | 188° |
| 2026-05-09 14:07 | 60.93828 | 25.25079 | 13164 ft | 306 kts | 202° |
| 2026-05-09 14:08 | 60.91895 | 25.23367 | 12739 ft | 300 kts | 203° |
| 2026-05-09 14:08 | 60.90002 | 25.21665 | 12370 ft | 294 kts | 203° |
| 2026-05-09 14:08 | 60.88143 | 25.20012 | 11988 ft | 288 kts | 202° |
| 2026-05-09 14:08 | 60.86313 | 25.18403 | 11595 ft | 285 kts | 202° |
| 2026-05-09 14:09 | 60.84505 | 25.16824 | 11244 ft | 280 kts | 202° |
| 2026-05-09 14:09 | 60.82716 | 25.15269 | 10843 ft | 278 kts | 202° |
| 2026-05-09 14:09 | 60.80938 | 25.13730 | 10500 ft | 276 kts | 202° |
| 2026-05-09 14:09 | 60.79166 | 25.12182 | 10124 ft | 278 kts | 202° |
| 2026-05-09 14:10 | 60.75620 | 25.09117 | 9397 ft | 277 kts | 201° |
| 2026-05-09 14:10 | 60.73851 | 25.07592 | 9031 ft | 276 kts | 201° |
| 2026-05-09 14:10 | 60.72084 | 25.06071 | 8669 ft | 275 kts | 199° |
| 2026-05-09 14:11 | 60.70330 | 25.04577 | 8299 ft | 273 kts | 200° |
| 2026-05-09 14:11 | 60.68580 | 25.03082 | 7950 ft | 271 kts | 199° |
| 2026-05-09 14:11 | 60.66843 | 25.01584 | 7598 ft | 272 kts | 199° |
| 2026-05-09 14:11 | 60.65104 | 25.00078 | 7216 ft | 271 kts | 199° |
| 2026-05-09 14:12 | 60.63366 | 24.98594 | 6867 ft | 270 kts | 199° |
| 2026-05-09 14:12 | 60.61636 | 24.97120 | 6498 ft | 269 kts | 199° |
| 2026-05-09 14:12 | 60.59920 | 24.95663 | 6149 ft | 267 kts | 199° |
| 2026-05-09 14:12 | 60.58208 | 24.94217 | 5815 ft | 266 kts | 199° |
| 2026-05-09 14:13 | 60.56498 | 24.92773 | 5430 ft | 266 kts | 199° |
| 2026-05-09 14:14 | 60.44687 | 24.84750 | 3078 ft | 243 kts | 159° |
| 2026-05-09 14:15 | 60.43149 | 24.86019 | 2769 ft | 233 kts | 151° |
| 2026-05-09 14:15 | 60.41774 | 24.87388 | 2760 ft | 193 kts | 149° |
| 2026-05-09 14:15 | 60.40654 | 24.88599 | 3099 ft | 186 kts | 148° |
| 2026-05-09 14:15 | 60.39520 | 24.89674 | 2918 ft | 171 kts | 152° |
| 2026-05-09 14:16 | 60.38540 | 24.90593 | 2615 ft | 142 kts | 148° |
| 2026-05-09 14:16 | 60.37836 | 24.91533 | 2408 ft | 103 kts | 134° |
| 2026-05-09 14:16 | 60.37166 | 24.92119 | 2007 ft | 107 kts | 157° |
| 2026-05-09 14:16 | 60.36463 | 24.92783 | 1741 ft | 114 kts | 147° |
| 2026-05-09 14:17 | 60.35746 | 24.93607 | 1485 ft | 123 kts | 145° |
| 2026-05-09 14:17 | 60.34999 | 24.94381 | 1149 ft | 119 kts | 148° |
| 2026-05-09 14:17 | 60.34283 | 24.95160 | 778 ft | 116 kts | 147° |
| 2026-05-09 14:17 | 60.33571 | 24.95894 | 429 ft | 115 kts | 151° |
| 2026-05-09 14:18 | 60.32871 | 24.96611 | 223 ft | 108 kts | 150° |
| 2026-05-09 14:18 | 60.32260 | 24.97244 | 156 ft | 81 kts | 156° |
| 2026-05-09 14:18 | 60.31869 | 24.97655 | 151 ft | 54 kts | 152° |